Time;durP1;ratioP1;P1;durP2;ratioP2;P2;SDS_P1;SDS_P2;PMS_P1;PMS_P2;Temp;Humidity;BMP_temperature;BMP_pressure;BME280_temperature;BME280_humidity;BME280_pressure;Samples;Min_cycle;Max_cycle;Signal;HPM_P1;HPM_P2
2022/06/19 00:00:08;;;;;;;5.55;3.08;;;19.70;91.90;;;;;;4988807;28;20031;-77
2022/06/19 00:02:36;;;;;;;5.88;3.00;;;19.70;91.90;;;;;;4990237;28;20506;-77
2022/06/19 00:05:01;;;;;;;4.95;3.05;;;19.70;91.90;;;;;;4988872;28;20494;-77
2022/06/19 00:07:27;;;;;;;4.45;2.85;;;19.70;91.80;;;;;;4989828;28;20038;-77
2022/06/19 00:09:53;;;;;;;5.40;2.90;;;19.70;91.80;;;;;;4989866;28;20030;-77
2022/06/19 00:12:18;;;;;;;4.22;2.78;;;19.80;91.80;;;;;;4989852;28;20057;-77
2022/06/19 00:14:45;;;;;;;4.65;2.80;;;19.80;91.70;;;;;;5003960;28;20038;-75
2022/06/19 00:17:11;;;;;;;5.10;2.95;;;19.80;91.60;;;;;;4989613;28;20039;-77
2022/06/19 00:19:37;;;;;;;4.63;2.60;;;19.80;91.60;;;;;;4989389;28;20552;-76
2022/06/19 00:22:03;;;;;;;5.43;3.00;;;19.80;91.60;;;;;;4987837;28;20088;-77
2022/06/19 00:24:29;;;;;;;5.18;3.08;;;19.80;91.60;;;;;;4988699;28;20267;-76
2022/06/19 00:26:56;;;;;;;4.47;3.13;;;19.80;91.70;;;;;;4989640;28;20487;-77
2022/06/19 00:29:21;;;;;;;5.22;2.85;;;19.80;91.70;;;;;;4989056;28;20510;-76
2022/06/19 00:31:47;;;;;;;3.97;2.85;;;19.70;91.70;;;;;;4987974;28;20126;-77
2022/06/19 00:34:13;;;;;;;5.50;2.95;;;19.70;91.80;;;;;;4988559;28;20455;-75
2022/06/19 00:36:38;;;;;;;5.75;2.67;;;19.70;91.80;;;;;;4988123;28;20037;-77
2022/06/19 00:39:04;;;;;;;5.82;2.90;;;19.70;91.80;;;;;;4987245;28;20030;-77
2022/06/19 00:41:42;;;;;;;5.00;3.15;;;19.70;91.80;;;;;;4988556;28;20057;-78
2022/06/19 00:44:10;;;;;;;4.80;3.10;;;19.70;91.80;;;;;;4988425;28;20513;-76
2022/06/19 00:46:47;;;;;;;5.05;2.63;;;19.70;91.90;;;;;;4989574;28;20026;-78
2022/06/19 00:49:22;;;;;;;7.05;3.30;;;19.70;91.80;;;;;;4987908;28;20076;-77
2022/06/19 00:51:58;;;;;;;4.75;3.08;;;19.70;91.90;;;;;;4987553;28;20081;-76
2022/06/19 00:54:24;;;;;;;4.95;2.83;;;19.70;91.90;;;;;;4987096;28;20030;-78
2022/06/19 00:56:49;;;;;;;4.72;2.97;;;19.70;91.90;;;;;;4988914;28;20598;-75
2022/06/19 00:59:17;;;;;;;4.50;2.97;;;19.70;91.90;;;;;;4987762;28;20121;-77
2022/06/19 01:01:43;;;;;;;4.30;2.65;;;19.70;91.90;;;;;;4987672;28;20026;-75
2022/06/19 01:04:19;;;;;;;4.78;2.80;;;19.70;91.80;;;;;;4988313;28;20038;-77
2022/06/19 01:06:45;;;;;;;4.43;2.80;;;19.80;91.80;;;;;;4987565;28;20031;-78
2022/06/19 01:09:10;;;;;;;3.70;2.60;;;19.80;91.70;;;;;;4985956;28;20026;-77
2022/06/19 01:11:38;;;;;;;4.15;2.60;;;19.80;91.70;;;;;;4988199;28;20026;-77
2022/06/19 01:14:08;;;;;;;4.20;2.90;;;19.80;91.70;;;;;;4986381;28;20030;-77
2022/06/19 01:16:34;;;;;;;5.97;3.00;;;19.80;91.70;;;;;;4987147;28;20030;-77
2022/06/19 01:19:00;;;;;;;4.10;2.60;;;19.70;91.70;;;;;;4987201;28;20033;-77
2022/06/19 01:21:34;;;;;;;4.45;2.60;;;19.80;91.80;;;;;;4988983;28;20026;-77
2022/06/19 01:24:12;;;;;;;4.63;2.67;;;19.70;91.80;;;;;;4987097;28;20040;-77
2022/06/19 01:26:41;;;;;;;4.63;2.80;;;19.70;91.80;;;;;;4987806;28;20018;-78
2022/06/19 01:29:08;;;;;;;5.80;2.95;;;19.70;91.80;;;;;;4987651;28;20033;-78
2022/06/19 01:31:39;;;;;;;4.05;2.83;;;19.70;91.90;;;;;;4988721;28;20062;-78
2022/06/19 01:37:00;;;;;;;5.22;2.85;;;19.70;91.90;;;;;;4988622;28;20049;-76
2022/06/19 01:39:31;;;;;;;4.45;2.85;;;19.70;91.90;;;;;;4987893;28;20637;-77
2022/06/19 01:41:56;;;;;;;4.45;2.60;;;19.70;91.90;;;;;;4987156;28;20756;-78
2022/06/19 01:44:22;;;;;;;4.57;2.63;;;19.70;91.90;;;;;;4987527;28;20037;-78
2022/06/19 01:46:48;;;;;;;3.85;2.65;;;19.70;92.00;;;;;;4987217;28;20033;-77
2022/06/19 01:49:14;;;;;;;6.10;2.97;;;19.70;92.00;;;;;;4988273;28;20026;-78
2022/06/19 01:51:39;;;;;;;4.93;2.92;;;19.70;91.90;;;;;;4987785;28;20049;-77
2022/06/19 01:54:13;;;;;;;3.92;2.47;;;19.70;91.90;;;;;;4987214;28;20035;-77
2022/06/19 01:56:38;;;;;;;4.05;2.40;;;19.70;91.80;;;;;;4985983;28;20033;-75
2022/06/19 01:59:08;;;;;;;5.00;2.60;;;19.80;91.70;;;;;;4987967;28;20038;-77
2022/06/19 02:01:36;;;;;;;4.63;2.70;;;19.80;91.70;;;;;;4990078;28;20030;-77
2022/06/19 02:04:05;;;;;;;4.10;2.70;;;19.80;91.60;;;;;;4993547;28;20054;-77
2022/06/19 02:06:37;;;;;;;4.45;2.40;;;19.80;91.60;;;;;;4993650;28;20092;-77
2022/06/19 02:09:03;;;;;;;3.85;2.55;;;19.80;91.70;;;;;;5007439;28;20138;-77
2022/06/19 02:11:31;;;;;;;4.15;2.47;;;19.70;91.70;;;;;;5009542;28;20085;-77
2022/06/19 02:13:58;;;;;;;4.28;2.90;;;19.70;91.80;;;;;;4993561;28;20029;-76
2022/06/19 02:17:09;;;;;;;5.22;2.80;;;19.70;91.80;;;;;;5008853;28;20106;-77
2022/06/19 02:19:35;;;;;;;4.03;2.65;;;19.70;91.90;;;;;;4982287;28;20058;-77
2022/06/19 02:22:00;;;;;;;4.00;2.65;;;19.70;91.90;;;;;;4992999;28;20138;-77
2022/06/19 02:24:27;;;;;;;4.20;2.70;;;19.70;91.90;;;;;;4991825;28;20449;-78
2022/06/19 02:26:55;;;;;;;4.85;2.60;;;19.70;91.90;;;;;;4978874;28;20479;-77
2022/06/19 02:29:21;;;;;;;3.92;2.65;;;19.60;91.80;;;;;;4994112;28;20045;-77
2022/06/19 02:31:51;;;;;;;4.10;2.42;;;19.60;91.80;;;;;;4994199;28;20764;-75
2022/06/19 02:34:36;;;;;;;5.35;2.70;;;19.60;91.90;;;;;;4993394;28;20070;-75
2022/06/19 02:37:04;;;;;;;4.38;2.67;;;19.60;91.90;;;;;;4993333;28;20061;-77
2022/06/19 02:39:39;;;;;;;4.93;2.63;;;19.60;92.00;;;;;;4992563;28;20046;-77
2022/06/19 02:42:20;;;;;;;5.03;2.53;;;19.70;92.00;;;;;;5009262;28;20058;-77
2022/06/19 02:44:48;;;;;;;3.97;2.53;;;19.70;91.90;;;;;;5008918;28;20038;-77
2022/06/19 02:47:14;;;;;;;5.25;2.70;;;19.70;91.90;;;;;;4992948;28;20733;-78
2022/06/19 02:49:39;;;;;;;4.47;2.50;;;19.70;92.00;;;;;;4992974;28;20038;-77
2022/06/19 02:52:06;;;;;;;3.70;2.35;;;19.80;91.80;;;;;;4994177;28;20045;-77
2022/06/19 02:54:32;;;;;;;3.70;2.42;;;19.80;91.70;;;;;;4993430;28;20562;-77
2022/06/19 02:56:57;;;;;;;4.10;2.50;;;19.80;91.70;;;;;;4992872;28;20038;-78
2022/06/19 02:59:24;;;;;;;4.03;2.45;;;19.70;91.70;;;;;;4992657;28;20763;-78
2022/06/19 03:01:49;;;;;;;3.95;2.42;;;19.70;91.70;;;;;;4992665;28;20069;-78
2022/06/19 03:04:23;;;;;;;4.22;2.60;;;19.70;91.70;;;;;;4993222;28;20061;-77
2022/06/19 03:06:49;;;;;;;4.65;2.60;;;19.70;91.80;;;;;;4993855;28;20034;-77
2022/06/19 03:09:14;;;;;;;3.83;2.30;;;19.70;91.90;;;;;;4992761;28;20026;-77
2022/06/19 03:11:40;;;;;;;4.10;2.40;;;19.70;91.90;;;;;;4993558;28;20033;-76
2022/06/19 03:14:05;;;;;;;3.60;2.05;;;19.70;91.90;;;;;;5005380;28;20483;-77
2022/06/19 03:16:31;;;;;;;4.40;2.45;;;19.60;91.80;;;;;;4989831;28;20030;-75
2022/06/19 03:18:58;;;;;;;3.97;2.30;;;19.60;91.80;;;;;;4989681;28;20031;-77
2022/06/19 03:21:24;;;;;;;3.50;2.20;;;19.60;91.80;;;;;;4988650;28;20033;-77
2022/06/19 03:23:49;;;;;;;3.40;2.38;;;19.60;91.80;;;;;;4989932;28;20125;-77
2022/06/19 03:26:15;;;;;;;5.32;2.55;;;19.60;91.90;;;;;;4990798;28;20022;-77
2022/06/19 03:28:40;;;;;;;4.03;2.40;;;19.60;92.00;;;;;;4990338;28;20719;-77
2022/06/19 03:31:06;;;;;;;3.55;2.30;;;19.60;92.00;;;;;;4990511;28;20039;-77
2022/06/19 03:33:32;;;;;;;3.05;2.08;;;19.70;92.00;;;;;;4988723;28;20045;-77
2022/06/19 03:35:57;;;;;;;4.10;2.38;;;19.70;91.90;;;;;;4988738;28;20065;-77
2022/06/19 03:38:23;;;;;;;3.13;2.20;;;19.70;91.90;;;;;;4989633;28;20034;-77
2022/06/19 03:40:49;;;;;;;3.50;2.25;;;19.80;91.80;;;;;;4989031;28;20037;-78
2022/06/19 03:43:14;;;;;;;3.70;2.28;;;19.80;91.70;;;;;;4988975;28;20034;-76
2022/06/19 03:45:40;;;;;;;3.53;2.30;;;19.80;91.70;;;;;;4989578;28;20046;-78
2022/06/19 03:48:06;;;;;;;3.88;2.30;;;19.70;91.70;;;;;;4990518;28;20896;-77
2022/06/19 03:50:32;;;;;;;3.65;2.33;;;19.80;91.70;;;;;;4990360;28;20053;-77
2022/06/19 03:52:57;;;;;;;3.70;2.30;;;19.70;91.80;;;;;;4988744;28;20022;-75
2022/06/19 03:55:23;;;;;;;4.30;2.35;;;19.70;91.80;;;;;;4987874;28;20062;-77
2022/06/19 03:57:48;;;;;;;4.78;2.45;;;19.70;91.80;;;;;;4988696;28;20052;-77
2022/06/19 04:00:17;;;;;;;4.22;2.58;;;19.60;91.80;;;;;;4988618;28;20045;-77
2022/06/19 04:02:44;;;;;;;4.05;2.60;;;19.70;91.90;;;;;;4988434;28;20414;-77
2022/06/19 04:05:10;;;;;;;4.03;2.30;;;19.70;91.90;;;;;;4989323;28;20114;-77
2022/06/19 04:07:45;;;;;;;3.95;2.35;;;19.70;91.90;;;;;;4989311;28;20034;-77
2022/06/19 04:10:12;;;;;;;4.15;2.40;;;19.70;91.90;;;;;;4969389;28;20034;-77
2022/06/19 04:12:37;;;;;;;4.07;2.22;;;19.60;91.90;;;;;;4975971;28;20618;-77
2022/06/19 04:15:04;;;;;;;4.80;2.72;;;19.70;91.90;;;;;;4987463;28;20027;-77
2022/06/19 04:17:30;;;;;;;3.80;2.30;;;19.60;91.90;;;;;;4988202;28;20081;-77
2022/06/19 04:19:55;;;;;;;3.42;2.28;;;19.70;92.00;;;;;;4986718;28;20034;-77
2022/06/19 04:22:21;;;;;;;4.30;2.30;;;19.70;92.00;;;;;;4988321;28;20427;-77
2022/06/19 04:24:46;;;;;;;3.15;2.00;;;19.70;92.00;;;;;;4987695;28;20027;-78
2022/06/19 04:27:12;;;;;;;3.60;2.30;;;19.70;91.90;;;;;;4989404;28;20030;-77
2022/06/19 04:29:37;;;;;;;3.50;2.30;;;19.70;91.80;;;;;;4989314;28;20030;-78
2022/06/19 04:32:04;;;;;;;3.35;2.10;;;19.80;91.80;;;;;;4989045;28;20634;-78
2022/06/19 04:34:29;;;;;;;3.75;2.45;;;19.80;91.70;;;;;;4988788;28;20564;-78
2022/06/19 04:36:55;;;;;;;3.70;2.00;;;19.80;91.70;;;;;;4989287;28;20117;-77
2022/06/19 04:39:20;;;;;;;3.58;2.17;;;19.80;91.70;;;;;;4987836;28;20069;-77
2022/06/19 04:41:46;;;;;;;4.13;2.30;;;19.80;91.70;;;;;;5004090;28;20026;-77
2022/06/19 04:44:16;;;;;;;4.20;2.38;;;19.80;91.80;;;;;;4986396;28;20487;-77
2022/06/19 04:46:43;;;;;;;3.90;2.20;;;19.80;91.80;;;;;;4988785;28;20018;-77
2022/06/19 04:49:09;;;;;;;3.28;1.98;;;19.70;91.80;;;;;;4987999;28;20072;-77
2022/06/19 04:51:34;;;;;;;2.92;2.20;;;19.70;91.80;;;;;;4987394;28;20030;-78
2022/06/19 04:54:00;;;;;;;4.22;2.38;;;19.70;91.80;;;;;;4987896;28;20438;-77
2022/06/19 04:56:25;;;;;;;4.25;2.38;;;19.70;91.80;;;;;;4987335;28;20149;-75
2022/06/19 04:58:51;;;;;;;3.13;2.10;;;19.80;91.80;;;;;;4987929;28;20022;-77
2022/06/19 05:01:33;;;;;;;3.00;2.00;;;19.70;91.80;;;;;;4988348;28;20109;-76
2022/06/19 05:04:00;;;;;;;3.42;1.92;;;19.70;91.80;;;;;;4987562;28;20030;-77
2022/06/19 05:06:27;;;;;;;3.17;2.05;;;19.70;91.70;;;;;;4989081;28;20459;-78
2022/06/19 05:08:53;;;;;;;5.20;2.15;;;19.70;91.80;;;;;;4987576;28;20032;-77
2022/06/19 05:11:19;;;;;;;3.42;2.13;;;19.70;91.80;;;;;;4987646;28;20481;-77
2022/06/19 05:13:45;;;;;;;3.95;2.30;;;19.70;91.80;;;;;;4986889;28;20026;-76
2022/06/19 05:16:18;;;;;;;3.85;1.90;;;19.70;91.80;;;;;;4987431;28;20040;-76
2022/06/19 05:18:45;;;;;;;4.07;2.22;;;19.80;91.70;;;;;;4988694;28;20026;-77
2022/06/19 05:21:11;;;;;;;3.22;2.13;;;19.70;91.60;;;;;;4988957;28;20038;-77
2022/06/19 05:23:41;;;;;;;3.28;2.08;;;19.80;91.80;;;;;;4988421;28;20400;-77
2022/06/19 05:26:13;;;;;;;3.90;2.20;;;19.80;91.50;;;;;;4988531;28;20018;-76
2022/06/19 05:28:39;;;;;;;3.85;2.30;;;19.80;91.50;;;;;;4987438;28;20027;-77
2022/06/19 05:31:04;;;;;;;3.67;1.90;;;19.80;91.50;;;;;;4988377;28;20026;-77
2022/06/19 05:33:31;;;;;;;3.25;2.00;;;19.80;91.50;;;;;;4987052;28;20034;-77
2022/06/19 05:35:57;;;;;;;3.10;1.98;;;19.80;91.50;;;;;;4987515;28;20030;-77
2022/06/19 05:38:23;;;;;;;4.47;2.13;;;19.80;91.60;;;;;;4987532;28;20044;-77
2022/06/19 05:40:51;;;;;;;3.60;2.08;;;19.80;91.80;;;;;;4988356;28;20407;-77
2022/06/19 05:43:18;;;;;;;4.40;2.30;;;19.80;91.60;;;;;;4987009;28;20026;-78
2022/06/19 05:46:01;;;;;;;3.63;2.03;;;19.80;91.50;;;;;;4987083;28;20034;-76
2022/06/19 05:48:28;;;;;;;5.50;2.28;;;19.80;91.50;;;;;;4988079;28;20058;-78
2022/06/19 05:51:05;;;;;;;4.30;2.10;;;19.80;91.30;;;;;;4986433;28;20084;-78
2022/06/19 05:53:34;;;;;;;4.25;2.40;;;19.80;91.40;;;;;;4988246;28;20045;-78
2022/06/19 05:56:00;;;;;;;3.17;1.90;;;19.80;91.60;;;;;;4988016;28;20049;-78
2022/06/19 05:58:26;;;;;;;4.07;2.30;;;19.80;91.50;;;;;;4987150;28;20051;-76
2022/06/19 06:00:52;;;;;;;3.67;2.08;;;19.80;91.60;;;;;;4987496;28;20034;-78
2022/06/19 06:03:19;;;;;;;3.92;1.90;;;19.80;91.60;;;;;;4987497;28;20034;-76
2022/06/19 06:05:45;;;;;;;4.25;1.98;;;19.80;91.60;;;;;;4986334;28;20102;-78
2022/06/19 06:08:12;;;;;;;4.35;2.17;;;19.80;91.50;;;;;;4988287;28;20117;-76
2022/06/19 06:10:38;;;;;;;3.80;1.92;;;19.80;91.50;;;;;;4988259;28;20038;-77
2022/06/19 06:13:04;;;;;;;3.65;1.98;;;19.90;91.40;;;;;;4986869;28;20550;-77
2022/06/19 06:15:29;;;;;;;4.00;2.08;;;19.90;91.30;;;;;;4987342;28;20034;-77
2022/06/19 06:17:55;;;;;;;3.78;2.03;;;19.90;91.20;;;;;;4987799;28;20546;-76
2022/06/19 06:20:20;;;;;;;3.80;1.80;;;19.90;91.10;;;;;;4987206;28;20038;-77
2022/06/19 06:22:46;;;;;;;3.97;2.10;;;19.90;91.00;;;;;;4987419;28;20038;-76
2022/06/19 06:25:11;;;;;;;4.15;2.10;;;20.00;91.10;;;;;;4986481;28;20108;-77
2022/06/19 06:27:37;;;;;;;3.35;1.95;;;19.90;91.10;;;;;;5002647;28;20553;-78
2022/06/19 06:30:04;;;;;;;5.00;2.00;;;19.90;91.00;;;;;;4987436;28;20038;-77
2022/06/19 06:32:29;;;;;;;4.03;2.40;;;19.90;91.10;;;;;;4987829;28;20125;-77
2022/06/19 06:34:55;;;;;;;4.10;1.70;;;19.90;90.90;;;;;;4986801;28;20106;-78
2022/06/19 06:37:21;;;;;;;4.63;2.22;;;19.90;90.90;;;;;;5003040;28;20041;-77
2022/06/19 06:39:47;;;;;;;4.25;1.80;;;19.90;91.00;;;;;;4987033;28;20030;-77
2022/06/19 06:42:13;;;;;;;3.97;2.10;;;19.90;91.00;;;;;;4987885;28;20033;-78
2022/06/19 06:44:39;;;;;;;3.85;1.80;;;19.90;91.00;;;;;;4984902;28;20026;-77
2022/06/19 06:47:04;;;;;;;3.90;1.90;;;19.90;91.10;;;;;;4986421;28;20026;-78
2022/06/19 06:49:30;;;;;;;3.97;1.98;;;19.90;91.10;;;;;;4990443;28;20454;-76
2022/06/19 06:51:56;;;;;;;3.60;1.95;;;19.90;91.10;;;;;;4991146;28;20030;-77
2022/06/19 06:54:21;;;;;;;4.47;2.08;;;19.90;91.10;;;;;;4990332;28;20551;-77
2022/06/19 06:56:47;;;;;;;3.38;1.95;;;19.90;91.10;;;;;;4989615;28;20057;-78
2022/06/19 06:59:12;;;;;;;3.70;1.77;;;19.90;91.00;;;;;;4991049;28;20043;-76
2022/06/19 07:01:38;;;;;;;4.53;2.13;;;20.00;91.00;;;;;;4989318;28;20080;-77
2022/06/19 07:04:03;;;;;;;4.63;2.03;;;20.00;90.90;;;;;;5005423;28;20042;-77
2022/06/19 07:06:30;;;;;;;3.65;2.05;;;20.10;90.80;;;;;;4990935;28;20022;-77
2022/06/19 07:08:57;;;;;;;5.35;1.90;;;20.10;90.70;;;;;;4990887;28;20402;-77
2022/06/19 07:11:43;;;;;;;4.07;1.92;;;20.10;90.60;;;;;;4991207;28;20100;-77
2022/06/19 07:14:10;;;;;;;3.45;1.77;;;20.10;90.50;;;;;;4988490;28;20165;-75
2022/06/19 07:16:36;;;;;;;4.47;2.05;;;20.10;90.50;;;;;;4989600;28;20041;-77
2022/06/19 07:19:01;;;;;;;4.10;2.05;;;20.10;90.50;;;;;;4980855;28;20034;-77
2022/06/19 07:21:27;;;;;;;4.47;2.10;;;20.10;90.40;;;;;;4989980;28;20081;-78
2022/06/19 07:23:53;;;;;;;3.35;1.80;;;20.10;90.50;;;;;;4988041;28;20038;-76
2022/06/19 07:26:20;;;;;;;3.83;2.22;;;20.10;90.50;;;;;;4990093;28;20027;-77
2022/06/19 07:28:47;;;;;;;2.70;1.73;;;20.10;90.50;;;;;;4991013;28;20049;-78
2022/06/19 07:31:12;;;;;;;4.93;2.00;;;20.10;90.50;;;;;;4989856;28;20038;-77
2022/06/19 07:33:38;;;;;;;4.25;1.95;;;20.10;90.50;;;;;;4990753;28;20041;-77
2022/06/19 07:36:06;;;;;;;4.55;1.92;;;20.10;90.50;;;;;;4989428;28;20624;-83
2022/06/19 07:38:32;;;;;;;5.47;2.38;;;20.10;90.80;;;;;;4983693;28;20045;-74
2022/06/19 07:40:57;;;;;;;4.35;1.92;;;20.20;90.60;;;;;;4988995;28;20030;-74
2022/06/19 07:43:24;;;;;;;4.13;2.13;;;20.20;90.60;;;;;;4989073;28;20889;-75
2022/06/19 07:45:50;;;;;;;3.97;1.95;;;20.20;90.60;;;;;;4987192;28;20022;-75
2022/06/19 07:51:00;;;;;;;5.35;2.17;;;20.20;90.50;;;;;;4990192;28;20514;-75
2022/06/19 07:53:25;;;;;;;3.90;2.15;;;20.20;90.50;;;;;;4984058;28;20030;-75
2022/06/19 07:55:51;;;;;;;3.63;2.00;;;20.30;90.50;;;;;;4993702;28;20076;-75
2022/06/19 07:58:17;;;;;;;3.40;1.95;;;20.30;90.50;;;;;;4994859;28;20141;-74
2022/06/19 08:00:42;;;;;;;3.88;2.03;;;20.30;90.40;;;;;;4996653;28;20037;-77
2022/06/19 08:03:08;;;;;;;3.88;1.90;;;20.30;90.30;;;;;;4991192;28;20030;-75
2022/06/19 08:06:28;;;;;;;3.22;1.83;;;20.30;90.30;;;;;;5066342;23;20064;-75
2022/06/19 08:08:56;;;;;;;3.38;1.88;;;20.20;90.30;;;;;;4963164;28;20037;-78
2022/06/19 08:11:42;;;;;;;3.10;1.90;;;20.60;90.40;;;;;;5011686;28;20025;-78
2022/06/19 08:14:16;;;;;;;4.10;1.95;;;20.20;90.30;;;;;;5004227;28;20045;-78
2022/06/19 08:17:37;;;;;;;9.25;2.15;;;20.20;90.30;;;;;;5012192;28;20402;-79
2022/06/19 08:21:06;;;;;;;4.05;1.85;;;20.30;90.30;;;;;;4992966;28;20044;-79
2022/06/19 08:23:37;;;;;;;4.68;1.90;;;20.30;90.30;;;;;;5003321;28;20584;-78
2022/06/19 08:30:18;;;;;;;5.13;2.00;;;20.30;90.20;;;;;;4969583;28;20074;-78
2022/06/19 08:32:54;;;;;;;5.65;2.17;;;20.40;90.10;;;;;;4966248;28;20034;-79
2022/06/19 08:38:55;;;;;;;4.63;2.10;;;20.50;90.10;;;;;;4966454;28;20037;-78
2022/06/19 08:41:51;;;;;;;4.55;2.00;;;20.40;90.10;;;;;;5005362;28;20038;-79
2022/06/19 08:44:35;;;;;;;4.47;1.88;;;20.40;90.00;;;;;;5001665;28;20034;-79
2022/06/19 08:47:08;;;;;;;3.92;2.05;;;20.40;90.00;;;;;;4994156;28;20045;-79
2022/06/19 08:49:55;;;;;;;4.93;2.20;;;20.50;90.00;;;;;;5009227;28;20030;-79
2022/06/19 08:52:36;;;;;;;6.10;2.10;;;20.40;90.00;;;;;;5003715;28;20450;-79
2022/06/19 08:55:32;;;;;;;4.35;1.90;;;20.50;89.90;;;;;;4993919;28;20025;-79
2022/06/19 08:58:26;;;;;;;4.15;1.80;;;20.50;89.90;;;;;;4988948;28;20117;-79
2022/06/19 09:01:15;;;;;;;3.65;1.80;;;20.40;90.00;;;;;;4991315;28;20026;-78
2022/06/19 09:07:10;;;;;;;;;;;20.40;90.00;;;;;;4991232;28;20125;-78
2022/06/19 09:09:57;;;;;;;3.65;1.90;;;20.40;90.10;;;;;;5004059;28;20012;-78
2022/06/19 09:13:00;;;;;;;5.13;2.10;;;20.40;90.10;;;;;;5005973;28;20454;-77
2022/06/19 09:15:35;;;;;;;3.90;1.90;;;20.40;90.20;;;;;;5000651;28;20125;-79
2022/06/19 09:18:04;;;;;;;3.92;1.90;;;20.40;90.20;;;;;;5004782;28;20457;-79
2022/06/19 09:20:37;;;;;;;4.30;1.85;;;20.40;90.20;;;;;;4997660;28;20030;-79
2022/06/19 09:23:15;;;;;;;4.28;1.92;;;20.40;90.20;;;;;;5009153;28;20026;-77
2022/06/19 09:25:57;;;;;;;3.67;1.70;;;20.40;90.20;;;;;;4995113;28;20032;-78
2022/06/19 09:28:22;;;;;;;3.63;1.80;;;20.40;90.10;;;;;;4995540;28;20034;-78
2022/06/19 09:30:53;;;;;;;4.82;1.77;;;20.50;90.00;;;;;;4997902;28;20733;-79
2022/06/19 09:33:24;;;;;;;4.57;1.63;;;20.50;90.00;;;;;;5009285;28;20026;-79
2022/06/19 09:36:10;;;;;;;3.63;1.65;;;20.50;90.00;;;;;;5006124;28;20104;-78
2022/06/19 09:38:42;;;;;;;4.07;1.90;;;20.60;89.80;;;;;;5002343;28;20072;-79
2022/06/19 09:41:15;;;;;;;2.83;1.60;;;20.60;89.70;;;;;;5011339;28;20093;-79
2022/06/19 09:43:52;;;;;;;4.32;1.92;;;20.60;89.40;;;;;;5009782;28;20561;-77
2022/06/19 09:46:23;;;;;;;4.15;1.67;;;20.70;89.30;;;;;;5000950;28;20498;-79
2022/06/19 09:49:08;;;;;;;4.43;1.67;;;20.70;89.20;;;;;;5009786;28;20022;-81
2022/06/19 09:51:49;;;;;;;3.63;1.70;;;20.70;88.90;;;;;;5011515;28;20117;-81
2022/06/19 09:54:22;;;;;;;3.78;1.60;;;20.70;89.00;;;;;;5009149;28;20064;-79
2022/06/19 09:56:55;;;;;;;3.05;1.70;;;20.60;89.10;;;;;;5010371;28;20025;-80
2022/06/19 09:59:42;;;;;;;3.22;1.83;;;20.60;89.40;;;;;;5008911;28;20022;-79
2022/06/19 10:02:17;;;;;;;3.47;1.73;;;20.60;89.50;;;;;;5009101;28;20037;-81
2022/06/19 10:05:09;;;;;;;3.03;1.48;;;20.60;89.80;;;;;;5020517;28;20068;-80
2022/06/19 10:07:43;;;;;;;3.13;1.85;;;20.60;90.00;;;;;;5010900;28;20037;-80
2022/06/19 10:10:26;;;;;;;4.00;1.90;;;20.50;90.00;;;;;;5008173;28;20076;-79
2022/06/19 10:12:53;;;;;;;3.78;1.75;;;20.50;90.10;;;;;;5007065;28;20089;-79
2022/06/19 10:15:29;;;;;;;3.33;1.73;;;20.50;90.10;;;;;;4998846;28;20106;-80
2022/06/19 10:18:17;;;;;;;3.40;1.50;;;20.50;90.10;;;;;;4990841;28;20073;-80
2022/06/19 10:20:48;;;;;;;3.33;1.75;;;20.50;90.10;;;;;;4989127;28;20141;-80
2022/06/19 10:23:25;;;;;;;3.05;1.80;;;20.50;90.10;;;;;;4993196;28;20117;-80
2022/06/19 10:26:28;;;;;;;3.22;1.60;;;20.50;90.00;;;;;;4992585;28;20037;-84
2022/06/19 10:29:24;;;;;;;2.63;1.42;;;20.60;90.00;;;;;;5016639;28;20022;-80
2022/06/19 10:32:09;;;;;;;3.83;1.70;;;20.60;89.90;;;;;;4996154;28;20049;-86
2022/06/19 10:34:34;;;;;;;2.70;1.40;;;20.60;89.70;;;;;;5011317;28;20037;-81
2022/06/19 10:37:05;;;;;;;2.58;1.50;;;20.60;89.50;;;;;;5014904;28;20038;-80
2022/06/19 10:40:02;;;;;;;4.35;1.50;;;20.70;89.50;;;;;;5013511;28;20025;-82
2022/06/19 10:42:45;;;;;;;2.97;1.50;;;20.70;89.30;;;;;;5014837;28;20116;-81
2022/06/19 10:45:41;;;;;;;3.72;1.60;;;20.60;89.30;;;;;;5012332;28;20033;-85
2022/06/19 10:48:38;;;;;;;2.85;1.70;;;20.60;89.40;;;;;;5002422;28;20022;-81
2022/06/19 10:51:09;;;;;;;3.70;1.70;;;20.60;89.70;;;;;;4993107;28;20486;-80
2022/06/19 10:53:40;;;;;;;3.50;1.52;;;20.60;89.90;;;;;;4992737;28;20165;-80
2022/06/19 10:56:21;;;;;;;3.47;1.75;;;20.50;90.00;;;;;;5010337;28;20049;-80
2022/06/19 10:58:46;;;;;;;4.25;1.63;;;20.50;90.10;;;;;;5012468;28;20120;-80
2022/06/19 11:04:06;;;;;;;3.15;1.55;;;20.40;90.20;;;;;;5012086;28;20120;-79
2022/06/19 11:04:10;;;;;;;4.00;1.90;;;20.40;90.30;;;;;;5012468;28;20487;-80
2022/06/19 11:06:54;;;;;;;3.78;1.63;;;20.40;90.30;;;;;;5014174;28;20554;-81
2022/06/19 11:09:26;;;;;;;3.25;1.65;;;20.40;90.30;;;;;;5014272;28;20030;-81
2022/06/19 11:11:54;;;;;;;3.10;1.40;;;20.40;90.30;;;;;;5013673;28;20026;-80
2022/06/19 11:14:26;;;;;;;3.63;1.77;;;20.40;90.30;;;;;;5012450;28;20026;-81
2022/06/19 11:17:07;;;;;;;2.70;1.50;;;20.40;90.30;;;;;;5013809;28;20030;-82
2022/06/19 11:19:38;;;;;;;3.40;1.73;;;20.50;90.30;;;;;;5009896;28;20514;-82
2022/06/19 11:22:24;;;;;;;3.13;1.67;;;20.50;90.20;;;;;;5013232;28;20577;-80
2022/06/19 11:24:51;;;;;;;2.75;1.63;;;20.50;90.10;;;;;;5010045;28;20036;-83
2022/06/19 11:27:20;;;;;;;3.13;1.60;;;20.60;90.00;;;;;;5013778;28;20026;-81
2022/06/19 11:29:48;;;;;;;2.72;1.50;;;20.60;89.90;;;;;;5014078;28;20112;-79
2022/06/19 11:32:19;;;;;;;3.40;1.48;;;20.70;89.80;;;;;;5006734;28;20034;-79
2022/06/19 11:35:00;;;;;;;3.70;1.63;;;20.60;89.60;;;;;;4999911;28;20053;-79
2022/06/19 11:37:46;;;;;;;3.13;1.48;;;20.60;89.60;;;;;;4997879;28;20112;-79
2022/06/19 11:40:12;;;;;;;2.95;1.60;;;20.60;89.70;;;;;;5007531;28;20221;-79
2022/06/19 11:42:49;;;;;;;3.70;1.70;;;20.60;90.00;;;;;;5000526;28;20029;-80
2022/06/19 11:45:14;;;;;;;2.97;1.33;;;20.60;90.00;;;;;;4994514;28;20026;-80
2022/06/19 11:47:46;;;;;;;2.45;1.25;;;20.50;90.10;;;;;;5000010;28;20080;-80
2022/06/19 11:50:12;;;;;;;3.42;1.63;;;20.50;90.20;;;;;;5000141;28;20049;-80
2022/06/19 11:52:41;;;;;;;3.22;1.60;;;20.50;90.20;;;;;;4991818;28;20443;-80
2022/06/19 11:55:43;;;;;;;3.13;1.40;;;20.50;90.20;;;;;;4998497;28;20564;-82
2022/06/19 11:58:26;;;;;;;3.00;1.35;;;20.50;90.20;;;;;;4988209;28;20046;-78
2022/06/19 12:01:08;;;;;;;2.65;1.27;;;20.50;90.20;;;;;;4990646;28;20400;-79
2022/06/19 12:03:56;;;;;;;2.55;1.40;;;20.50;90.10;;;;;;4990419;28;20066;-78
2022/06/19 12:06:51;;;;;;;2.67;1.40;;;20.50;90.10;;;;;;4991734;28;20681;-81
2022/06/19 12:09:26;;;;;;;3.42;1.70;;;20.60;90.10;;;;;;4991500;28;20031;-79
2022/06/19 12:12:04;;;;;;;2.20;1.50;;;20.50;90.10;;;;;;4999590;28;20117;-78
2022/06/19 12:14:54;;;;;;;2.75;1.30;;;20.60;90.40;;;;;;4993492;28;20069;-80
2022/06/19 12:17:30;;;;;;;4.23;1.50;;;20.60;90.00;;;;;;4992482;28;20073;-80
2022/06/19 12:20:16;;;;;;;2.92;1.40;;;20.60;90.00;;;;;;5008736;28;20069;-79
2022/06/19 12:23:01;;;;;;;2.15;1.30;;;20.60;89.90;;;;;;5009557;28;20034;-83
2022/06/19 12:25:35;;;;;;;3.35;1.58;;;20.60;89.70;;;;;;5003827;28;20440;-79
2022/06/19 12:28:04;;;;;;;4.10;1.52;;;20.60;89.70;;;;;;5007623;28;20025;-79
2022/06/19 12:30:35;;;;;;;3.80;1.52;;;20.60;89.70;;;;;;5010521;28;20529;-81
2022/06/19 12:33:09;;;;;;;3.05;1.52;;;20.60;89.70;;;;;;5009783;28;20030;-79
2022/06/19 12:35:39;;;;;;;2.70;1.40;;;20.60;89.90;;;;;;5008587;28;20022;-77
2022/06/19 12:38:13;;;;;;;4.47;1.67;;;20.60;90.00;;;;;;5009325;28;20403;-78
2022/06/19 12:41:26;;;;;;;2.45;1.30;;;20.60;90.00;;;;;;4991470;28;20049;-82
2022/06/19 12:44:16;;;;;;;3.72;1.40;;;20.50;90.10;;;;;;4981446;28;20124;-79
2022/06/19 12:47:06;;;;;;;2.75;1.40;;;20.50;90.10;;;;;;5006640;28;20030;-76
2022/06/19 12:50:17;;;;;;;6.43;1.60;;;20.50;90.10;;;;;;5003568;28;20033;-79
2022/06/19 12:53:03;;;;;;;3.60;1.52;;;20.50;90.00;;;;;;4989739;28;20061;-79
2022/06/19 12:55:45;;;;;;;5.47;1.50;;;20.50;90.40;;;;;;4991095;28;20029;-78
2022/06/19 12:58:36;;;;;;;3.55;1.50;;;20.50;90.10;;;;;;4998579;28;20030;-79
2022/06/19 13:01:17;;;;;;;5.75;1.67;;;20.50;90.10;;;;;;4988861;28;20053;-79
2022/06/19 13:04:04;;;;;;;3.15;1.50;;;20.50;90.20;;;;;;4987365;28;20033;-80
2022/06/19 13:07:07;;;;;;;4.70;1.70;;;20.60;90.20;;;;;;4989980;28;20038;-80
2022/06/19 13:09:48;;;;;;;3.40;1.48;;;20.60;90.20;;;;;;4988413;28;20057;-82
2022/06/19 13:12:32;;;;;;;3.83;1.52;;;20.60;90.20;;;;;;4989963;28;20027;-80
2022/06/19 13:15:14;;;;;;;5.65;1.60;;;20.60;90.30;;;;;;4989302;28;20018;-78
2022/06/19 13:17:45;;;;;;;4.13;1.70;;;20.50;90.30;;;;;;4988903;28;20077;-81
2022/06/19 13:20:15;;;;;;;3.20;1.50;;;20.50;90.30;;;;;;4988241;28;20181;-78
2022/06/19 13:23:11;;;;;;;4.03;1.42;;;20.50;90.40;;;;;;4989842;28;20042;-80
2022/06/19 13:26:03;;;;;;;3.30;1.40;;;20.50;90.50;;;;;;4987875;28;20556;-80
2022/06/19 13:28:42;;;;;;;4.78;1.67;;;20.50;90.50;;;;;;4988566;28;20480;-80
2022/06/19 13:31:29;;;;;;;5.15;1.90;;;20.40;90.50;;;;;;4988384;28;20030;-79